Cartersville, Virginia
Current Conditions -  °F | °C
As of 1:55 PM on Friday 24 Oct 2014 (Local Time) from KLKU Reporting Station
Clear Clear  
Wind Chill: 64°   Ceiling: Unl
Heat Index: 64°   Visibility: 10mi
Dew Point: 45°   Wind: 5mph
Humidity: 49%   Direction: 300°WNW
Pressure: 29.95"   Gusts: NA
Location:  37.67°N, 78.09°W
Report Text: KLKU 241755Z AUTO 30004KT 10SM CLR 18/07 A2995 RMK AO2
Loading
Personal Weather Stations






























Interactive Weather Map
Tropical Storm Tracking
New forecast layout! Learn more

10-Day Weather Forecast

Advertisements
Track Severe Weather on mobile